createdAt,value
2023-02-04T00:00:53.606Z,2.47
2023-02-04T00:03:21.991Z,2.49
2023-02-04T00:05:51.735Z,2.43
2023-02-04T00:08:20.669Z,2.40
2023-02-04T00:10:48.943Z,2.32
2023-02-04T00:13:17.427Z,2.32
2023-02-04T00:15:45.782Z,2.32
2023-02-04T00:18:14.097Z,2.30
2023-02-04T00:20:42.502Z,2.40
2023-02-04T00:23:12.196Z,2.42
2023-02-04T00:25:40.549Z,2.43
2023-02-04T00:28:09.019Z,2.37
2023-02-04T00:30:37.406Z,2.37
2023-02-04T00:33:05.914Z,2.37
2023-02-04T00:35:34.313Z,2.40
2023-02-04T00:38:02.709Z,2.41
2023-02-04T00:40:32.688Z,2.39
2023-02-04T00:43:01.281Z,2.42
2023-02-04T00:45:29.769Z,2.41
2023-02-04T00:47:58.287Z,2.39
2023-02-04T00:50:26.721Z,2.43
2023-02-04T00:52:55.092Z,2.44
2023-02-04T00:55:23.492Z,2.40
2023-02-04T00:57:53.249Z,2.36
2023-02-04T01:00:22.112Z,2.41
2023-02-04T01:02:50.578Z,2.47
2023-02-04T01:05:19.414Z,2.50
2023-02-04T01:07:48.954Z,2.50
2023-02-04T01:10:18.046Z,2.48
2023-02-04T01:12:46.527Z,2.40
2023-02-04T01:15:16.519Z,2.42
2023-02-04T01:17:44.874Z,2.36
2023-02-04T01:20:13.826Z,2.33
2023-02-04T01:22:43.244Z,2.37
2023-02-04T01:25:11.642Z,2.31
2023-02-04T01:27:43.309Z,2.26
2023-02-04T01:30:16.110Z,2.12
2023-02-04T01:32:45.596Z,2.08
2023-02-04T01:35:13.890Z,2.09
2023-02-04T01:37:42.204Z,2.10
2023-02-04T01:40:13.184Z,2.05
2023-02-04T01:42:42.171Z,2.07
2023-02-04T01:45:12.083Z,2.06
2023-02-04T01:47:42.403Z,2.07
2023-02-04T01:50:15.785Z,2.07
2023-02-04T01:52:46.409Z,2.12
2023-02-04T01:55:18.258Z,2.18
2023-02-04T01:57:47.929Z,2.19
2023-02-04T02:00:28.742Z,2.18
2023-02-04T02:03:00.596Z,2.19
2023-02-04T02:05:33.776Z,2.17
2023-02-04T02:08:05.926Z,2.18
2023-02-04T02:10:36.165Z,2.18
2023-02-04T02:13:06.139Z,2.17
2023-02-04T02:15:34.592Z,2.20
2023-02-04T02:18:05.469Z,2.18
2023-02-04T02:20:34.012Z,2.21
2023-02-04T02:23:14.093Z,2.23
2023-02-04T02:25:44.283Z,2.22
2023-02-04T02:28:18.993Z,2.31
2023-02-04T02:30:49.812Z,2.32
2023-02-04T02:33:21.539Z,2.32
2023-02-04T02:35:50.596Z,2.34
2023-02-04T02:38:21.138Z,2.28
2023-02-04T02:40:52.628Z,2.30
2023-02-04T02:43:26.481Z,2.30
2023-02-04T02:45:57.972Z,2.23
2023-02-04T02:48:26.410Z,2.24
2023-02-04T02:50:55.220Z,2.20
2023-02-04T02:53:24.079Z,2.14
2023-02-04T02:55:53.874Z,2.17
2023-02-04T02:58:27.706Z,2.24
2023-02-04T03:00:57.908Z,2.21
2023-02-04T03:03:29.163Z,2.15
2023-02-04T03:06:03.293Z,2.16
2023-02-04T03:08:31.762Z,2.14
2023-02-04T03:11:01.549Z,2.13
2023-02-04T03:13:30.279Z,2.08
2023-02-04T03:16:00.148Z,2.03
2023-02-04T03:18:28.670Z,2.01
2023-02-04T03:20:57.410Z,2.02
2023-02-04T03:23:27.364Z,1.98
2023-02-04T03:25:56.047Z,1.93
2023-02-04T03:28:25.790Z,1.87
2023-02-04T03:30:56.114Z,1.84
2023-02-04T03:33:26.270Z,1.81
2023-02-04T03:35:54.558Z,1.80
2023-02-04T03:38:22.800Z,1.73
2023-02-04T03:40:51.460Z,1.80
2023-02-04T03:43:19.933Z,1.80
2023-02-04T03:45:49.668Z,1.78
2023-02-04T03:48:18.192Z,1.78
2023-02-04T03:50:46.756Z,1.73
2023-02-04T03:53:15.197Z,1.76
2023-02-04T03:55:44.548Z,1.69
2023-02-04T03:58:12.909Z,1.65
2023-02-04T04:00:41.290Z,1.69
2023-02-04T04:03:11.052Z,1.64
2023-02-04T04:05:39.430Z,1.59
2023-02-04T04:08:07.865Z,1.52
2023-02-04T04:10:36.169Z,1.50
2023-02-04T04:13:04.505Z,1.38
2023-02-04T04:15:34.210Z,1.33
2023-02-04T04:18:04.609Z,1.28
2023-02-04T04:20:34.815Z,1.28
2023-02-04T04:23:03.250Z,1.29
2023-02-04T04:25:31.629Z,1.22
2023-02-04T04:28:00.000Z,1.13
2023-02-04T04:30:28.335Z,1.11
2023-02-04T04:32:56.606Z,0.95
2023-02-04T04:35:24.938Z,0.85
2023-02-04T04:37:55.530Z,0.73
2023-02-04T04:40:24.067Z,0.66
2023-02-04T04:42:52.295Z,0.63
2023-02-04T04:45:23.013Z,0.56
2023-02-04T04:47:51.339Z,0.60
2023-02-04T04:50:20.277Z,0.58
2023-02-04T04:52:48.880Z,0.39
2023-02-04T04:55:19.062Z,0.21
2023-02-04T04:57:47.399Z,0.06
2023-02-04T05:00:19.543Z,-0.13
2023-02-04T05:02:48.048Z,-0.25
2023-02-04T05:05:16.728Z,-0.37
2023-02-04T05:07:44.984Z,-0.42
2023-02-04T05:10:13.433Z,-0.64
2023-02-04T05:12:44.395Z,-0.80
2023-02-04T05:15:13.880Z,-0.96
2023-02-04T05:17:42.213Z,-1.04
2023-02-04T05:20:11.965Z,-0.95
2023-02-04T05:22:40.284Z,-1.07
2023-02-04T05:25:09.009Z,-1.29
2023-02-04T05:27:37.415Z,-1.45
2023-02-04T05:30:08.122Z,-1.56
2023-02-04T05:32:36.802Z,-1.55
2023-02-04T05:35:05.773Z,-1.34
2023-02-04T05:37:34.155Z,-1.40
2023-02-04T05:40:02.626Z,-1.36
2023-02-04T05:42:31.179Z,-1.50
2023-02-04T05:44:59.546Z,-1.61
2023-02-04T05:47:29.283Z,-1.70
2023-02-04T05:49:58.590Z,-1.87
2023-02-04T05:52:26.930Z,-2.11
2023-02-04T05:54:55.174Z,-2.25
2023-02-04T05:57:23.559Z,-2.41
2023-02-04T05:59:51.889Z,-2.48
2023-02-04T06:02:20.674Z,-2.45
2023-02-04T06:04:50.501Z,-2.45
2023-02-04T06:07:19.044Z,-2.40
2023-02-04T06:09:47.316Z,-2.39
2023-02-04T06:12:15.797Z,-2.38
2023-02-04T06:14:44.022Z,-2.46
2023-02-04T06:17:12.354Z,-2.47
2023-02-04T06:19:40.623Z,-2.56
2023-02-04T06:22:10.373Z,-2.61
2023-02-04T06:24:38.637Z,-2.66
2023-02-04T06:27:06.968Z,-2.57
2023-02-04T06:29:35.382Z,-2.45
2023-02-04T06:32:04.090Z,-2.29
2023-02-04T06:34:32.460Z,-2.19
2023-02-04T06:37:02.049Z,-2.16
2023-02-04T06:39:31.737Z,-2.14
2023-02-04T06:42:00.099Z,-2.03
2023-02-04T06:44:28.523Z,-1.95
2023-02-04T06:46:57.041Z,-1.87
2023-02-04T06:49:26.185Z,-1.93
2023-02-04T06:51:55.376Z,-2.01
2023-02-04T06:54:24.292Z,-2.06
2023-02-04T06:56:54.947Z,-2.00
2023-02-04T06:59:25.351Z,-1.98
2023-02-04T07:01:53.835Z,-1.95
2023-02-04T07:04:22.122Z,-1.95
2023-02-04T07:06:50.463Z,-1.86
2023-02-04T07:09:19.838Z,-1.93
2023-02-04T07:11:48.290Z,-1.94
2023-02-04T07:14:19.149Z,-1.91
2023-02-04T07:16:47.667Z,-1.89
2023-02-04T07:19:16.161Z,-1.82
2023-02-04T07:21:44.472Z,-1.68
2023-02-04T07:24:13.794Z,-1.55
2023-02-04T07:26:42.157Z,-1.42
2023-02-04T07:29:17.481Z,-1.27
2023-02-04T07:31:52.895Z,-1.12
2023-02-04T07:34:22.225Z,-0.98
2023-02-04T07:36:50.836Z,-0.85
2023-02-04T07:39:20.695Z,-0.66
2023-02-04T07:41:49.236Z,-0.47
2023-02-04T07:44:18.978Z,-0.34
2023-02-04T07:46:47.567Z,-0.22
2023-02-04T07:49:17.305Z,-0.11
2023-02-04T07:51:45.596Z,-0.04
2023-02-04T07:54:14.030Z,0.06
2023-02-04T07:56:43.331Z,0.20
2023-02-04T07:59:11.643Z,0.31
2023-02-04T08:01:39.945Z,0.36
2023-02-04T08:04:08.320Z,0.46
2023-02-04T08:06:38.049Z,0.44
2023-02-04T08:09:06.659Z,0.42
2023-02-04T08:11:35.052Z,0.42
2023-02-04T08:14:03.425Z,0.42
2023-02-04T08:16:31.734Z,0.50
2023-02-04T08:19:00.119Z,0.65
2023-02-04T08:21:28.455Z,0.74
2023-02-04T08:24:00.192Z,0.85
2023-02-04T08:26:28.692Z,0.98
2023-02-04T08:28:57.004Z,1.19
2023-02-04T08:31:26.411Z,1.43
2023-02-04T08:33:54.759Z,1.53
2023-02-04T08:36:24.072Z,1.71
2023-02-04T08:38:52.436Z,1.92
2023-02-04T08:41:22.216Z,2.04
2023-02-04T08:43:50.633Z,2.08
2023-02-04T08:46:19.152Z,1.98
2023-02-04T08:48:47.541Z,1.89
2023-02-04T08:51:17.086Z,1.98
2023-02-04T08:53:45.405Z,2.20
2023-02-04T08:56:16.716Z,2.72
2023-02-04T08:58:46.437Z,3.28
2023-02-04T09:01:15.058Z,3.64
2023-02-04T09:03:43.470Z,3.86
2023-02-04T09:06:12.989Z,3.66
2023-02-04T09:08:41.348Z,4.15
2023-02-04T09:11:10.918Z,4.22
2023-02-04T09:13:39.412Z,4.08
2023-02-04T09:16:09.273Z,3.98
2023-02-04T09:18:37.647Z,4.17
2023-02-04T09:21:06.770Z,4.08
2023-02-04T09:23:35.074Z,4.80
2023-02-04T09:26:04.672Z,4.74
2023-02-04T09:28:33.402Z,4.83
2023-02-04T09:31:04.539Z,5.19
2023-02-04T09:33:35.338Z,5.23
2023-02-04T09:36:04.172Z,6.00
2023-02-04T09:38:32.690Z,5.61
2023-02-04T09:41:07.573Z,5.60
2023-02-04T09:43:39.978Z,5.94
2023-02-04T09:46:16.114Z,6.25
2023-02-04T09:48:45.963Z,6.73
2023-02-04T09:51:20.530Z,6.69
2023-02-04T09:53:50.296Z,5.83
2023-02-04T09:56:19.514Z,5.61
2023-02-04T09:58:48.212Z,4.97
2023-02-04T10:01:20.264Z,5.92
2023-02-04T10:03:51.643Z,6.24
2023-02-04T10:06:22.546Z,6.86
2023-02-04T10:08:52.744Z,6.99
2023-02-04T10:11:24.667Z,7.62
2023-02-04T10:13:56.081Z,8.37
2023-02-04T10:16:31.228Z,8.48
2023-02-04T10:19:05.480Z,8.25
2023-02-04T10:21:36.924Z,8.41
2023-02-04T10:24:13.746Z,8.19
2023-02-04T10:26:42.133Z,7.57
2023-02-04T10:29:18.056Z,8.00
2023-02-04T10:31:49.197Z,7.26
2023-02-04T10:34:21.614Z,6.78
2023-02-04T10:36:52.020Z,6.62
2023-02-04T10:39:24.628Z,6.69
2023-02-04T10:41:55.780Z,7.15
2023-02-04T10:44:30.966Z,7.96
2023-02-04T10:47:03.972Z,8.13
2023-02-04T10:49:34.829Z,8.06
2023-02-04T10:52:15.107Z,7.07
2023-02-04T10:54:44.259Z,6.58
2023-02-04T10:57:21.938Z,6.92
2023-02-04T10:59:54.779Z,6.44
2023-02-04T11:02:44.684Z,6.08
2023-02-04T11:05:19.509Z,6.18
2023-02-04T11:07:50.817Z,6.42
2023-02-04T11:10:22.586Z,6.95
2023-02-04T11:13:04.218Z,6.42
2023-02-04T11:15:49.160Z,7.46
2023-02-04T11:18:31.255Z,7.23
2023-02-04T11:21:01.258Z,7.35
2023-02-04T11:23:38.276Z,7.02
2023-02-04T11:26:12.181Z,6.55
2023-02-04T11:28:49.246Z,6.46
2023-02-04T11:31:44.583Z,6.53
2023-02-04T11:34:29.168Z,7.10
2023-02-04T11:37:17.301Z,7.29
2023-02-04T11:39:48.843Z,7.39
2023-02-04T11:42:22.848Z,6.75
2023-02-04T11:44:59.701Z,6.59
2023-02-04T11:47:35.013Z,6.01
2023-02-04T11:50:06.575Z,6.41
2023-02-04T11:52:38.179Z,6.78
2023-02-04T11:55:08.126Z,6.50
2023-02-04T11:57:41.348Z,7.33
2023-02-04T12:00:19.974Z,7.21
2023-02-04T12:02:51.899Z,7.11
2023-02-04T12:05:22.290Z,6.86
2023-02-04T12:07:52.084Z,7.18
2023-02-04T12:10:27.952Z,6.94
2023-02-04T12:12:59.801Z,6.66
2023-02-04T12:15:36.786Z,6.22
2023-02-04T12:18:08.387Z,6.41
2023-02-04T12:20:38.127Z,6.28
2023-02-04T12:23:08.583Z,6.91
2023-02-04T12:25:41.143Z,7.55
2023-02-04T12:28:09.796Z,7.91
2023-02-04T12:30:38.276Z,7.31
2023-02-04T12:33:07.218Z,7.02
2023-02-04T12:35:35.748Z,7.85
2023-02-04T12:38:04.804Z,7.61
2023-02-04T12:40:35.304Z,7.72
2023-02-04T12:43:03.690Z,7.48
2023-02-04T12:45:32.415Z,7.13
2023-02-04T12:48:01.139Z,6.07
2023-02-04T12:50:29.658Z,4.87
2023-02-04T12:53:00.497Z,5.06
2023-02-04T12:55:30.717Z,4.64
2023-02-04T12:58:00.682Z,4.86
2023-02-04T13:00:29.472Z,4.73
2023-02-04T13:03:00.403Z,4.44
2023-02-04T13:05:29.605Z,4.07
2023-02-04T13:07:58.576Z,4.38
2023-02-04T13:10:26.899Z,4.37
2023-02-04T13:12:55.339Z,4.06
2023-02-04T13:15:25.125Z,4.04
2023-02-04T13:17:54.076Z,4.15
2023-02-04T13:20:23.026Z,4.31
2023-02-04T13:22:51.668Z,4.28
2023-02-04T13:25:20.348Z,4.22
2023-02-04T13:27:48.703Z,4.17
2023-02-04T13:30:17.226Z,4.02
2023-02-04T13:32:47.342Z,3.69
2023-02-04T13:35:16.003Z,3.81
2023-02-04T13:37:44.521Z,3.79
2023-02-04T13:40:13.842Z,4.48
2023-02-04T13:42:42.119Z,4.73
2023-02-04T13:45:13.227Z,3.93
2023-02-04T13:47:41.579Z,3.93
2023-02-04T13:50:11.857Z,3.88
2023-02-04T13:52:42.172Z,3.37
2023-02-04T13:55:11.891Z,3.01
2023-02-04T13:57:40.164Z,2.64
2023-02-04T14:00:10.456Z,2.56
2023-02-04T14:02:38.765Z,2.36
2023-02-04T14:05:08.012Z,2.40
2023-02-04T14:07:37.780Z,2.40
2023-02-04T14:10:07.274Z,2.31
2023-02-04T14:12:35.662Z,2.43
2023-02-04T14:15:04.166Z,2.34
2023-02-04T14:17:32.677Z,2.23
2023-02-04T14:20:01.203Z,2.28
2023-02-04T14:22:29.588Z,1.98
2023-02-04T14:24:59.245Z,1.82
2023-02-04T14:27:27.663Z,1.82
2023-02-04T14:29:55.954Z,1.90
2023-02-04T14:32:24.407Z,1.98
2023-02-04T14:34:52.788Z,2.14
2023-02-04T14:37:21.265Z,2.16
2023-02-04T14:39:49.698Z,2.13
2023-02-04T14:42:19.536Z,2.54
2023-02-04T14:44:48.084Z,2.42
2023-02-04T14:47:16.579Z,2.17
2023-02-04T14:49:45.063Z,1.96
2023-02-04T14:52:14.215Z,1.89
2023-02-04T14:54:44.767Z,2.29
2023-02-04T14:57:13.869Z,2.65
2023-02-04T14:59:44.367Z,3.21
2023-02-04T15:02:15.292Z,3.36
2023-02-04T15:04:44.418Z,3.58
2023-02-04T15:07:13.837Z,3.98
2023-02-04T15:09:42.569Z,3.70
2023-02-04T15:12:11.185Z,3.56
2023-02-04T15:14:39.645Z,3.30
2023-02-04T15:17:09.378Z,3.04
2023-02-04T15:19:37.928Z,2.56
2023-02-04T15:22:07.280Z,2.23
2023-02-04T15:24:35.703Z,1.85
2023-02-04T15:27:05.545Z,1.70
2023-02-04T15:29:35.117Z,1.72
2023-02-04T15:32:05.274Z,1.06
2023-02-04T15:34:36.749Z,0.59
2023-02-04T15:37:11.094Z,0.05
2023-02-04T15:39:40.533Z,-0.13
2023-02-04T15:42:11.180Z,-0.39
2023-02-04T15:44:40.607Z,-0.67
2023-02-04T15:47:10.595Z,-0.82
2023-02-04T15:49:41.349Z,-1.03
2023-02-04T15:52:19.573Z,-1.24
2023-02-04T15:54:53.259Z,-1.50
2023-02-04T15:57:24.697Z,-1.71
2023-02-04T15:59:54.151Z,-1.81
2023-02-04T16:02:22.572Z,-1.96
2023-02-04T16:04:53.439Z,-2.14
2023-02-04T16:07:22.867Z,-2.27
2023-02-04T16:09:51.742Z,-2.45
2023-02-04T16:12:21.288Z,-2.64
2023-02-04T16:14:52.267Z,-2.82
2023-02-04T16:17:22.679Z,-2.89
2023-02-04T16:19:53.502Z,-2.98
2023-02-04T16:22:22.787Z,-3.13
2023-02-04T16:24:53.068Z,-3.09
2023-02-04T16:27:25.515Z,-3.07
2023-02-04T16:29:57.022Z,-3.03
2023-02-04T16:32:26.860Z,-3.00
2023-02-04T16:34:57.172Z,-2.96
2023-02-04T16:37:26.123Z,-2.73
2023-02-04T16:39:55.416Z,-2.79
2023-02-04T16:42:25.007Z,-2.87
2023-02-04T16:44:55.612Z,-2.89
2023-02-04T16:47:25.118Z,-3.08
2023-02-04T16:50:00.214Z,-3.18
2023-02-04T16:52:29.537Z,-3.31
2023-02-04T16:55:00.569Z,-3.36
2023-02-04T16:57:29.879Z,-3.36
2023-02-04T16:59:58.712Z,-3.51
2023-02-04T17:02:28.559Z,-3.56
2023-02-04T17:04:59.656Z,-3.47
2023-02-04T17:07:30.953Z,-3.45
2023-02-04T17:10:01.085Z,-3.46
2023-02-04T17:12:30.076Z,-3.58
2023-02-04T17:14:58.839Z,-3.70
2023-02-04T17:17:27.849Z,-3.73
2023-02-04T17:19:57.551Z,-3.59
2023-02-04T17:22:26.193Z,-3.68
2023-02-04T17:24:54.547Z,-3.80
2023-02-04T17:27:23.204Z,-3.89
2023-02-04T17:29:52.608Z,-3.82
2023-02-04T17:32:21.821Z,-3.81
2023-02-04T17:34:54.200Z,-3.87
2023-02-04T17:37:24.112Z,-3.93
2023-02-04T17:39:52.422Z,-4.03
2023-02-04T17:42:21.529Z,-4.12
2023-02-04T17:44:50.460Z,-4.11
2023-02-04T17:47:18.927Z,-4.02
2023-02-04T17:49:48.592Z,-4.04
2023-02-04T17:52:16.994Z,-4.00
2023-02-04T17:54:46.794Z,-3.89
2023-02-04T17:57:22.323Z,-3.89
2023-02-04T17:59:54.271Z,-3.87
2023-02-04T18:02:29.728Z,-3.90
2023-02-04T18:05:13.528Z,-3.99
2023-02-04T18:07:48.455Z,-4.13
2023-02-04T18:10:29.274Z,-4.12
2023-02-04T18:13:00.802Z,-4.15
2023-02-04T18:15:32.917Z,-4.18
2023-02-04T18:18:21.008Z,-4.10
2023-02-04T18:20:59.498Z,-3.91
2023-02-04T18:23:33.832Z,-3.81
2023-02-04T18:26:14.669Z,-3.77
2023-02-04T18:28:46.702Z,-3.81
2023-02-04T18:31:35.825Z,-3.76
2023-02-04T18:34:20.595Z,-3.74
2023-02-04T18:36:50.168Z,-3.70
2023-02-04T18:39:25.928Z,-3.69
2023-02-04T18:41:57.145Z,-3.62
2023-02-04T18:44:32.882Z,-3.59
2023-02-04T18:47:14.006Z,-3.60
2023-02-04T18:49:43.952Z,-3.58
2023-02-04T18:52:19.499Z,-3.61
2023-02-04T18:54:52.691Z,-3.64
2023-02-04T18:57:39.142Z,-3.70
2023-02-04T19:00:28.366Z,-3.68
2023-02-04T19:03:00.609Z,-3.57
2023-02-04T19:05:35.194Z,-3.57
2023-02-04T19:08:28.876Z,-3.49
2023-02-04T19:10:59.154Z,-3.42
2023-02-04T19:13:40.065Z,-3.39
2023-02-04T19:16:23.749Z,-3.34
2023-02-04T19:18:54.872Z,-3.30
2023-02-04T19:21:28.711Z,-3.30
2023-02-04T19:24:13.474Z,-3.28
2023-02-04T19:26:50.629Z,-3.31
2023-02-04T19:29:41.223Z,-3.31
2023-02-04T19:32:27.948Z,-3.28
2023-02-04T19:35:02.778Z,-3.36
2023-02-04T19:37:41.989Z,-3.41
2023-02-04T19:40:30.331Z,-3.46
2023-02-04T19:43:20.333Z,-3.53
2023-02-04T19:45:52.838Z,-3.56
2023-02-04T19:48:33.667Z,-3.60
2023-02-04T19:51:08.857Z,-3.67
2023-02-04T19:53:37.271Z,-3.74
2023-02-04T19:56:32.888Z,-3.82
2023-02-04T19:59:27.150Z,-3.80
2023-02-04T20:02:22.191Z,-3.83
2023-02-04T20:04:55.108Z,-3.86
2023-02-04T20:07:25.897Z,-3.94
2023-02-04T20:10:02.858Z,-4.09
2023-02-04T20:12:34.467Z,-4.23
2023-02-04T20:15:14.440Z,-4.26
2023-02-04T20:17:46.989Z,-4.25
2023-02-04T20:20:27.840Z,-4.13
2023-02-04T20:22:58.449Z,-4.12
2023-02-04T20:25:48.311Z,-4.13
2023-02-04T20:28:42.389Z,-4.13
2023-02-04T20:31:28.807Z,-4.14
2023-02-04T20:34:00.393Z,-4.07
2023-02-04T20:36:47.417Z,-4.01
2023-02-04T20:39:36.925Z,-3.94
2023-02-04T20:42:41.665Z,-3.94
2023-02-04T20:45:27.811Z,-3.88
2023-02-04T20:48:03.702Z,-3.83
2023-02-04T20:50:48.615Z,-3.72
2023-02-04T20:53:21.654Z,-3.71
2023-02-04T20:55:54.850Z,-3.76
2023-02-04T20:58:25.378Z,-3.81
2023-02-04T21:00:56.280Z,-3.88
2023-02-04T21:03:29.107Z,-3.84
2023-02-04T21:06:01.105Z,-3.75
2023-02-04T21:08:37.180Z,-3.63
2023-02-04T21:11:06.613Z,-3.53
2023-02-04T21:13:36.931Z,-3.51
2023-02-04T21:16:06.249Z,-3.46
2023-02-04T21:18:35.597Z,-3.40
2023-02-04T21:21:08.364Z,-3.32
2023-02-04T21:23:38.124Z,-3.30
2023-02-04T21:26:07.499Z,-3.29
2023-02-04T21:28:36.472Z,-3.27
2023-02-04T21:31:06.221Z,-3.27
2023-02-04T21:33:34.672Z,-3.22
2023-02-04T21:36:03.049Z,-3.25
2023-02-04T21:38:32.777Z,-3.28
2023-02-04T21:41:01.537Z,-3.25
2023-02-04T21:43:29.982Z,-3.22
2023-02-04T21:45:58.476Z,-3.11
2023-02-04T21:48:26.948Z,-3.08
2023-02-04T21:50:55.355Z,-3.02
2023-02-04T21:53:24.378Z,-2.99
2023-02-04T21:55:54.351Z,-3.02
2023-02-04T21:58:22.879Z,-2.96
2023-02-04T22:00:52.502Z,-2.95
2023-02-04T22:03:21.147Z,-2.96
2023-02-04T22:05:49.676Z,-2.97
2023-02-04T22:08:18.105Z,-2.92
2023-02-04T22:10:46.643Z,-2.78
2023-02-04T22:13:16.406Z,-2.72
2023-02-04T22:15:44.933Z,-2.70
2023-02-04T22:18:13.555Z,-2.69
2023-02-04T22:20:41.896Z,-2.64
2023-02-04T22:23:10.239Z,-2.59
2023-02-04T22:25:38.605Z,-2.57
2023-02-04T22:28:07.250Z,-2.52
2023-02-04T22:30:37.854Z,-2.50
2023-02-04T22:33:06.307Z,-2.45
2023-02-04T22:35:36.780Z,-2.47
2023-02-04T22:38:06.452Z,-2.49
2023-02-04T22:40:34.755Z,-2.54
2023-02-04T22:43:04.741Z,-2.54
2023-02-04T22:45:33.440Z,-2.47
2023-02-04T22:48:03.282Z,-2.52
2023-02-04T22:50:31.550Z,-2.56
2023-02-04T22:53:00.283Z,-2.54
2023-02-04T22:55:28.614Z,-2.55
2023-02-04T22:57:56.927Z,-2.48
2023-02-04T23:00:26.626Z,-2.44
2023-02-04T23:02:55.012Z,-2.43
2023-02-04T23:05:24.798Z,-2.43
2023-02-04T23:07:53.218Z,-2.44
2023-02-04T23:10:21.540Z,-2.45
2023-02-04T23:12:50.867Z,-2.41
2023-02-04T23:15:19.745Z,-2.43
2023-02-04T23:17:48.220Z,-2.37
2023-02-04T23:20:16.808Z,-2.39
2023-02-04T23:22:47.554Z,-2.41
2023-02-04T23:25:15.964Z,-2.44
2023-02-04T23:27:44.400Z,-2.47
2023-02-04T23:30:15.490Z,-2.46
2023-02-04T23:32:43.862Z,-2.36
2023-02-04T23:35:12.277Z,-2.40
2023-02-04T23:37:40.926Z,-2.34
2023-02-04T23:40:12.128Z,-2.34
2023-02-04T23:42:40.505Z,-2.34
2023-02-04T23:45:09.756Z,-2.34
2023-02-04T23:47:38.106Z,-2.32
2023-02-04T23:50:07.752Z,-2.31
2023-02-04T23:52:36.114Z,-2.33
2023-02-04T23:55:04.784Z,-2.31
2023-02-04T23:57:34.544Z,-2.27
